Airfield :
LOGIN :

Register | Disclaimer

   EN    FR    IT 

 










Legend :    VFR   Marginal VFR   IFR   Intensive IFR   Very Intensive IFR
Visi :
Ceiling :
>= 8 km
>= 3000ft
5 to 8 km
1000 to 3000 ft
1500m to 5 km
500 to 1000 ft
800 to 1500m
200 to 500 ft
< 800m
< 200 ft
Symbols :   Thunderstorms  Fog  Heavy snow  Heavy precipitations  Wind > 20 kt
SIGMETs :     Misc.  Thunderstorms  Icing  Turbulence  Mountain Waves  Volcanic Ashes







- Airport Elevation : 1046 ft
- IATA code : FDE


ENBL - Bringeland

CURRENT METAR :
  • 210650Z 003KT 9999 FEW003 SCT012 BKN020 09/08 Q1021

EXPIRED METARs :
  • 210620Z 15002KT 9999 FEW002 SCT012 BKN020 09/08 Q1021
  • 210550Z 13002KT 9999 3000NE VCFG SCT005 SCT012 BKN035 08/08 Q1020
  • 210520Z 22003KT 9999 2000N -DZ VCFG SCT005 BKN013 08/08 Q1020
  • 210450Z 15003KT 3000 1500W BCFG SCT003 BKN010 08/08 Q1020
  • 210420Z 20002KT 1500 DZ BCFG SCT003 BKN008 08/08 Q1020

TAF N/A
No reported NOTAMs for that airfield.



MET'MAP, your aeronautical weather chart ! - Copyright ORBIFLY December 2007 - Disclaimer

ORBIFLY MET'MAP TEAM :

Programming & Development : Alexandra Zaïnal
Concept & Development : Baudouin d'Aumeries
Co-Development & Prog : Marc-Olivier Méhu
Technical & hardware support : Manuel Goepfert

Contact : metmap@orbifly.com




SOURCES & CREDITS :

   NOAA